sensor_id;sensor_type;location;lat;lon;timestamp;pressure;altitude;pressure_sealevel;temperature;humidity
19827;BME280;10074;52.018;4.726;2023-08-24T00:03:03;46277.41;;;-144.79;100.00
19827;BME280;10074;52.018;4.726;2023-08-24T00:08:05;46279.41;;;-144.79;100.00
19827;BME280;10074;52.018;4.726;2023-08-24T00:13:05;46279.41;;;-144.79;100.00
19827;BME280;10074;52.018;4.726;2023-08-24T00:18:06;46277.41;;;-144.79;100.00
19827;BME280;10074;52.018;4.726;2023-08-24T00:23:06;46283.41;;;-144.79;100.00
19827;BME280;10074;52.018;4.726;2023-08-24T00:28:07;46279.41;;;-144.79;100.00
19827;BME280;10074;52.018;4.726;2023-08-24T00:33:07;46285.41;;;-144.79;100.00
19827;BME280;10074;52.018;4.726;2023-08-24T00:38:07;46281.41;;;-144.79;100.00
19827;BME280;10074;52.018;4.726;2023-08-24T00:43:08;46285.41;;;-144.79;100.00
19827;BME280;10074;52.018;4.726;2023-08-24T00:48:08;46287.44;;;-144.79;100.00
19827;BME280;10074;52.018;4.726;2023-08-24T00:53:09;46285.41;;;-144.79;100.00
19827;BME280;10074;52.018;4.726;2023-08-24T00:58:09;46287.44;;;-144.79;100.00
19827;BME280;10074;52.018;4.726;2023-08-24T01:03:10;46285.41;;;-144.79;100.00
19827;BME280;10074;52.018;4.726;2023-08-24T01:08:10;46285.41;;;-144.79;100.00
19827;BME280;10074;52.018;4.726;2023-08-24T01:13:17;46287.44;;;-144.79;100.00
19827;BME280;10074;52.018;4.726;2023-08-24T01:18:23;46289.44;;;-144.79;100.00
19827;BME280;10074;52.018;4.726;2023-08-24T01:23:36;46287.44;;;-144.79;100.00
19827;BME280;10074;52.018;4.726;2023-08-24T01:28:38;46291.44;;;-144.79;100.00
19827;BME280;10074;52.018;4.726;2023-08-24T01:33:40;46291.44;;;-144.79;100.00
19827;BME280;10074;52.018;4.726;2023-08-24T01:38:40;46289.44;;;-144.79;100.00
19827;BME280;10074;52.018;4.726;2023-08-24T01:43:43;46295.44;;;-144.79;100.00
19827;BME280;10074;52.018;4.726;2023-08-24T01:48:45;46293.44;;;-144.79;100.00
19827;BME280;10074;52.018;4.726;2023-08-24T01:53:46;46301.47;;;-144.79;100.00
19827;BME280;10074;52.018;4.726;2023-08-24T01:58:47;46303.47;;;-144.79;100.00
19827;BME280;10074;52.018;4.726;2023-08-24T02:03:47;46307.47;;;-144.79;100.00
19827;BME280;10074;52.018;4.726;2023-08-24T02:08:48;46309.47;;;-144.79;100.00
19827;BME280;10074;52.018;4.726;2023-08-24T02:13:48;46317.50;;;-144.79;100.00
19827;BME280;10074;52.018;4.726;2023-08-24T02:18:48;46327.53;;;-144.79;100.00
19827;BME280;10074;52.018;4.726;2023-08-24T02:23:49;46323.53;;;-144.79;100.00
19827;BME280;10074;52.018;4.726;2023-08-24T02:28:49;46327.53;;;-144.79;100.00
19827;BME280;10074;52.018;4.726;2023-08-24T02:33:49;46333.53;;;-144.79;100.00
19827;BME280;10074;52.018;4.726;2023-08-24T02:38:49;46329.53;;;-144.79;100.00
19827;BME280;10074;52.018;4.726;2023-08-24T02:43:50;46333.53;;;-144.79;100.00
19827;BME280;10074;52.018;4.726;2023-08-24T02:48:50;46331.53;;;-144.79;100.00
19827;BME280;10074;52.018;4.726;2023-08-24T02:53:50;46349.59;;;-144.79;100.00
19827;BME280;10074;52.018;4.726;2023-08-24T02:58:51;46347.56;;;-144.79;100.00
19827;BME280;10074;52.018;4.726;2023-08-24T03:03:52;46343.56;;;-144.79;100.00
19827;BME280;10074;52.018;4.726;2023-08-24T03:08:53;46349.59;;;-144.79;100.00
19827;BME280;10074;52.018;4.726;2023-08-24T03:13:53;46347.56;;;-144.79;100.00
19827;BME280;10074;52.018;4.726;2023-08-24T03:18:54;46347.56;;;-144.79;100.00
19827;BME280;10074;52.018;4.726;2023-08-24T03:23:54;46355.59;;;-144.79;100.00
19827;BME280;10074;52.018;4.726;2023-08-24T03:28:55;46353.59;;;-144.79;100.00
19827;BME280;10074;52.018;4.726;2023-08-24T03:33:55;46351.59;;;-144.79;100.00
19827;BME280;10074;52.018;4.726;2023-08-24T03:38:56;46359.59;;;-144.79;100.00
19827;BME280;10074;52.018;4.726;2023-08-24T03:43:56;46369.63;;;-144.79;100.00
19827;BME280;10074;52.018;4.726;2023-08-24T03:48:57;46371.63;;;-144.79;100.00
19827;BME280;10074;52.018;4.726;2023-08-24T03:53:57;46383.66;;;-144.79;100.00
19827;BME280;10074;52.018;4.726;2023-08-24T03:58:57;46371.63;;;-144.79;100.00
19827;BME280;10074;52.018;4.726;2023-08-24T04:03:58;46375.66;;;-144.79;100.00
19827;BME280;10074;52.018;4.726;2023-08-24T04:08:58;46387.69;;;-144.79;100.00
19827;BME280;10074;52.018;4.726;2023-08-24T04:13:58;46379.66;;;-144.79;100.00
19827;BME280;10074;52.018;4.726;2023-08-24T04:18:58;46397.72;;;-144.79;100.00
19827;BME280;10074;52.018;4.726;2023-08-24T04:23:59;46395.69;;;-144.79;100.00
19827;BME280;10074;52.018;4.726;2023-08-24T04:28:59;46395.69;;;-144.79;100.00
19827;BME280;10074;52.018;4.726;2023-08-24T04:33:59;46407.72;;;-144.79;100.00
19827;BME280;10074;52.018;4.726;2023-08-24T04:39:00;46409.75;;;-144.79;100.00
19827;BME280;10074;52.018;4.726;2023-08-24T04:44:00;46415.75;;;-144.79;100.00
19827;BME280;10074;52.018;4.726;2023-08-24T04:49:00;46415.75;;;-144.79;100.00
19827;BME280;10074;52.018;4.726;2023-08-24T04:54:01;46427.78;;;-144.79;100.00
19827;BME280;10074;52.018;4.726;2023-08-24T04:59:01;46425.78;;;-144.79;100.00
19827;BME280;10074;52.018;4.726;2023-08-24T05:04:03;46429.78;;;-144.79;100.00
19827;BME280;10074;52.018;4.726;2023-08-24T05:09:03;46417.75;;;-144.79;100.00
19827;BME280;10074;52.018;4.726;2023-08-24T05:14:03;46435.81;;;-144.79;100.00
19827;BME280;10074;52.018;4.726;2023-08-24T05:19:04;46433.81;;;-144.79;100.00
19827;BME280;10074;52.018;4.726;2023-08-24T05:24:05;46423.78;;;-144.79;100.00
19827;BME280;10074;52.018;4.726;2023-08-24T05:29:05;46427.78;;;-144.79;100.00
19827;BME280;10074;52.018;4.726;2023-08-24T05:34:06;46429.78;;;-144.79;100.00
19827;BME280;10074;52.018;4.726;2023-08-24T05:39:06;46431.78;;;-144.79;100.00
19827;BME280;10074;52.018;4.726;2023-08-24T05:44:07;46439.81;;;-144.79;100.00
19827;BME280;10074;52.018;4.726;2023-08-24T05:49:07;46433.81;;;-144.79;100.00
19827;BME280;10074;52.018;4.726;2023-08-24T05:54:08;46443.81;;;-144.79;100.00
19827;BME280;10074;52.018;4.726;2023-08-24T05:59:08;46441.81;;;-144.79;100.00
19827;BME280;10074;52.018;4.726;2023-08-24T06:04:09;46443.81;;;-144.79;100.00
19827;BME280;10074;52.018;4.726;2023-08-24T06:09:09;46443.81;;;-144.79;100.00
19827;BME280;10074;52.018;4.726;2023-08-24T06:14:10;46447.84;;;-144.79;100.00
19827;BME280;10074;52.018;4.726;2023-08-24T06:19:10;46453.84;;;-144.79;100.00
19827;BME280;10074;52.018;4.726;2023-08-24T06:24:10;46445.84;;;-144.79;100.00
19827;BME280;10074;52.018;4.726;2023-08-24T06:29:11;46447.84;;;-144.79;100.00
19827;BME280;10074;52.018;4.726;2023-08-24T06:34:11;46451.84;;;-144.79;100.00
19827;BME280;10074;52.018;4.726;2023-08-24T06:39:11;46451.84;;;-144.79;100.00
19827;BME280;10074;52.018;4.726;2023-08-24T06:44:12;46451.84;;;-144.79;100.00
19827;BME280;10074;52.018;4.726;2023-08-24T06:49:12;46453.84;;;-144.79;100.00
19827;BME280;10074;52.018;4.726;2023-08-24T06:54:13;46457.88;;;-144.79;100.00
19827;BME280;10074;52.018;4.726;2023-08-24T06:59:14;46459.88;;;-144.79;100.00
19827;BME280;10074;52.018;4.726;2023-08-24T07:04:15;46459.88;;;-144.79;100.00
19827;BME280;10074;52.018;4.726;2023-08-24T07:09:15;46463.88;;;-144.79;100.00
19827;BME280;10074;52.018;4.726;2023-08-24T07:14:16;46461.88;;;-144.79;100.00
19827;BME280;10074;52.018;4.726;2023-08-24T07:19:16;46463.88;;;-144.79;100.00
19827;BME280;10074;52.018;4.726;2023-08-24T07:24:17;46459.88;;;-144.79;100.00
19827;BME280;10074;52.018;4.726;2023-08-24T07:29:20;46465.88;;;-144.79;100.00
19827;BME280;10074;52.018;4.726;2023-08-24T07:34:20;46463.88;;;-144.79;100.00
19827;BME280;10074;52.018;4.726;2023-08-24T07:39:22;46465.88;;;-144.79;100.00
19827;BME280;10074;52.018;4.726;2023-08-24T07:44:22;46467.88;;;-144.79;100.00
19827;BME280;10074;52.018;4.726;2023-08-24T07:49:22;46459.88;;;-144.79;100.00
19827;BME280;10074;52.018;4.726;2023-08-24T07:54:23;46465.88;;;-144.79;100.00
19827;BME280;10074;52.018;4.726;2023-08-24T07:59:23;46467.88;;;-144.79;100.00
19827;BME280;10074;52.018;4.726;2023-08-24T08:04:24;46467.88;;;-144.79;100.00
19827;BME280;10074;52.018;4.726;2023-08-24T08:09:24;46465.88;;;-144.79;100.00
19827;BME280;10074;52.018;4.726;2023-08-24T08:14:26;46463.88;;;-144.79;100.00
19827;BME280;10074;52.018;4.726;2023-08-24T08:19:26;46465.88;;;-144.79;100.00
19827;BME280;10074;52.018;4.726;2023-08-24T08:24:28;46467.88;;;-144.79;100.00
19827;BME280;10074;52.018;4.726;2023-08-24T08:29:28;46461.88;;;-144.79;100.00
19827;BME280;10074;52.018;4.726;2023-08-24T08:34:28;46469.88;;;-144.79;100.00
19827;BME280;10074;52.018;4.726;2023-08-24T08:39:29;46465.88;;;-144.79;100.00
19827;BME280;10074;52.018;4.726;2023-08-24T08:44:30;46467.88;;;-144.79;100.00
19827;BME280;10074;52.018;4.726;2023-08-24T08:49:33;46467.88;;;-144.79;100.00
19827;BME280;10074;52.018;4.726;2023-08-24T08:54:35;46461.88;;;-144.79;100.00
19827;BME280;10074;52.018;4.726;2023-08-24T08:59:36;46467.88;;;-144.79;100.00
19827;BME280;10074;52.018;4.726;2023-08-24T09:04:37;46467.88;;;-144.79;100.00
19827;BME280;10074;52.018;4.726;2023-08-24T09:09:39;46469.88;;;-144.79;100.00
19827;BME280;10074;52.018;4.726;2023-08-24T09:14:39;46467.88;;;-144.79;100.00
19827;BME280;10074;52.018;4.726;2023-08-24T09:19:41;46471.91;;;-144.79;100.00
19827;BME280;10074;52.018;4.726;2023-08-24T09:24:41;46467.88;;;-144.79;100.00
19827;BME280;10074;52.018;4.726;2023-08-24T09:29:42;46467.88;;;-144.79;100.00
19827;BME280;10074;52.018;4.726;2023-08-24T09:34:42;46467.88;;;-144.79;100.00
19827;BME280;10074;52.018;4.726;2023-08-24T09:39:44;46467.88;;;-144.79;100.00
19827;BME280;10074;52.018;4.726;2023-08-24T09:44:44;46469.88;;;-144.79;100.00
19827;BME280;10074;52.018;4.726;2023-08-24T09:49:46;46467.88;;;-144.79;100.00
19827;BME280;10074;52.018;4.726;2023-08-24T09:54:48;46467.88;;;-144.79;100.00
19827;BME280;10074;52.018;4.726;2023-08-24T09:59:51;46467.88;;;-144.79;100.00
19827;BME280;10074;52.018;4.726;2023-08-24T10:04:52;46471.91;;;-144.79;100.00
19827;BME280;10074;52.018;4.726;2023-08-24T10:15:01;46469.88;;;-144.79;100.00
19827;BME280;10074;52.018;4.726;2023-08-24T10:20:10;46467.88;;;-144.79;100.00
19827;BME280;10074;52.018;4.726;2023-08-24T10:25:11;46465.88;;;-144.79;100.00
19827;BME280;10074;52.018;4.726;2023-08-24T10:30:12;46465.88;;;-144.79;100.00
19827;BME280;10074;52.018;4.726;2023-08-24T10:35:13;46469.88;;;-144.79;100.00
19827;BME280;10074;52.018;4.726;2023-08-24T10:40:33;46471.91;;;-144.79;100.00
19827;BME280;10074;52.018;4.726;2023-08-24T10:56:20;46465.88;;;-144.79;100.00
19827;BME280;10074;52.018;4.726;2023-08-24T11:01:22;46465.88;;;-144.79;100.00
19827;BME280;10074;52.018;4.726;2023-08-24T11:06:25;46467.88;;;-144.79;100.00
19827;BME280;10074;52.018;4.726;2023-08-24T11:11:27;46459.88;;;-144.79;100.00
19827;BME280;10074;52.018;4.726;2023-08-24T11:16:44;46461.88;;;-144.79;100.00
19827;BME280;10074;52.018;4.726;2023-08-24T11:21:46;46469.88;;;-144.79;100.00
19827;BME280;10074;52.018;4.726;2023-08-24T11:26:48;46465.88;;;-144.79;100.00
19827;BME280;10074;52.018;4.726;2023-08-24T11:31:48;46465.88;;;-144.79;100.00
19827;BME280;10074;52.018;4.726;2023-08-24T11:36:51;46465.88;;;-144.79;100.00
19827;BME280;10074;52.018;4.726;2023-08-24T11:42:00;46467.88;;;-144.79;100.00
19827;BME280;10074;52.018;4.726;2023-08-24T11:47:01;46471.91;;;-144.79;100.00
19827;BME280;10074;52.018;4.726;2023-08-24T11:52:01;46467.88;;;-144.79;100.00
19827;BME280;10074;52.018;4.726;2023-08-24T11:57:05;46469.88;;;-144.79;100.00
19827;BME280;10074;52.018;4.726;2023-08-24T12:02:08;46465.88;;;-144.79;100.00
19827;BME280;10074;52.018;4.726;2023-08-24T12:07:10;46463.88;;;-144.79;100.00
19827;BME280;10074;52.018;4.726;2023-08-24T12:12:14;46461.88;;;-144.79;100.00
19827;BME280;10074;52.018;4.726;2023-08-24T12:17:16;46467.88;;;-144.79;100.00
19827;BME280;10074;52.018;4.726;2023-08-24T12:22:17;46463.88;;;-144.79;100.00
19827;BME280;10074;52.018;4.726;2023-08-24T12:27:22;46461.88;;;-144.79;100.00
19827;BME280;10074;52.018;4.726;2023-08-24T12:32:22;46467.88;;;-144.79;100.00
19827;BME280;10074;52.018;4.726;2023-08-24T12:37:25;46465.88;;;-144.79;100.00
19827;BME280;10074;52.018;4.726;2023-08-24T12:42:25;46467.88;;;-144.79;100.00
19827;BME280;10074;52.018;4.726;2023-08-24T12:47:26;46469.88;;;-144.79;100.00
19827;BME280;10074;52.018;4.726;2023-08-24T12:52:26;46471.91;;;-144.79;100.00
19827;BME280;10074;52.018;4.726;2023-08-24T12:57:27;46461.88;;;-144.79;100.00
19827;BME280;10074;52.018;4.726;2023-08-24T13:02:27;46461.88;;;-144.79;100.00
19827;BME280;10074;52.018;4.726;2023-08-24T13:07:27;46465.88;;;-144.79;100.00
19827;BME280;10074;52.018;4.726;2023-08-24T13:12:28;46469.88;;;-144.79;100.00
19827;BME280;10074;52.018;4.726;2023-08-24T13:17:31;46465.88;;;-144.79;100.00
19827;BME280;10074;52.018;4.726;2023-08-24T13:22:31;46471.91;;;-144.79;100.00
19827;BME280;10074;52.018;4.726;2023-08-24T13:27:32;46471.91;;;-144.79;100.00
19827;BME280;10074;52.018;4.726;2023-08-24T13:32:32;46469.88;;;-144.79;100.00
19827;BME280;10074;52.018;4.726;2023-08-24T13:37:32;46467.88;;;-144.79;100.00
19827;BME280;10074;52.018;4.726;2023-08-24T13:42:33;46465.88;;;-144.79;100.00
19827;BME280;10074;52.018;4.726;2023-08-24T13:47:34;46465.88;;;-144.79;100.00
19827;BME280;10074;52.018;4.726;2023-08-24T13:52:34;46467.88;;;-144.79;100.00
19827;BME280;10074;52.018;4.726;2023-08-24T13:57:34;46463.88;;;-144.79;100.00
19827;BME280;10074;52.018;4.726;2023-08-24T14:02:35;46467.88;;;-144.79;100.00
19827;BME280;10074;52.018;4.726;2023-08-24T14:07:35;46467.88;;;-144.79;100.00
19827;BME280;10074;52.018;4.726;2023-08-24T14:12:36;46467.88;;;-144.79;100.00
19827;BME280;10074;52.018;4.726;2023-08-24T14:17:36;46469.88;;;-144.79;100.00
19827;BME280;10074;52.018;4.726;2023-08-24T14:22:36;46463.88;;;-144.79;100.00
19827;BME280;10074;52.018;4.726;2023-08-24T14:27:36;46465.88;;;-144.79;100.00
19827;BME280;10074;52.018;4.726;2023-08-24T14:32:38;46469.88;;;-144.79;100.00
19827;BME280;10074;52.018;4.726;2023-08-24T14:37:38;46467.88;;;-144.79;100.00
19827;BME280;10074;52.018;4.726;2023-08-24T14:42:39;46463.88;;;-144.79;100.00
19827;BME280;10074;52.018;4.726;2023-08-24T14:47:39;46467.88;;;-144.79;100.00
19827;BME280;10074;52.018;4.726;2023-08-24T14:52:40;46465.88;;;-144.79;100.00
19827;BME280;10074;52.018;4.726;2023-08-24T14:57:40;46465.88;;;-144.79;100.00
19827;BME280;10074;52.018;4.726;2023-08-24T15:02:41;46465.88;;;-144.79;100.00
19827;BME280;10074;52.018;4.726;2023-08-24T15:07:41;46461.88;;;-144.79;100.00
19827;BME280;10074;52.018;4.726;2023-08-24T15:12:43;46461.88;;;-144.79;100.00
19827;BME280;10074;52.018;4.726;2023-08-24T15:17:43;46463.88;;;-144.79;100.00
19827;BME280;10074;52.018;4.726;2023-08-24T15:22:48;46461.88;;;-144.79;100.00
19827;BME280;10074;52.018;4.726;2023-08-24T15:27:48;46465.88;;;-144.79;100.00
19827;BME280;10074;52.018;4.726;2023-08-24T15:32:48;46457.88;;;-144.79;100.00
19827;BME280;10074;52.018;4.726;2023-08-24T15:37:49;46461.88;;;-144.79;100.00
19827;BME280;10074;52.018;4.726;2023-08-24T15:42:49;46465.88;;;-144.79;100.00
19827;BME280;10074;52.018;4.726;2023-08-24T15:47:50;46465.88;;;-144.79;100.00
19827;BME280;10074;52.018;4.726;2023-08-24T15:52:50;46463.88;;;-144.79;100.00
19827;BME280;10074;52.018;4.726;2023-08-24T15:57:52;46465.88;;;-144.79;100.00
19827;BME280;10074;52.018;4.726;2023-08-24T16:02:52;46459.88;;;-144.79;100.00
19827;BME280;10074;52.018;4.726;2023-08-24T16:07:53;46467.88;;;-144.79;100.00
19827;BME280;10074;52.018;4.726;2023-08-24T16:12:53;46465.88;;;-144.79;100.00
19827;BME280;10074;52.018;4.726;2023-08-24T16:17:54;46467.88;;;-144.79;100.00
19827;BME280;10074;52.018;4.726;2023-08-24T16:22:54;46465.88;;;-144.79;100.00
19827;BME280;10074;52.018;4.726;2023-08-24T16:27:55;46461.88;;;-144.79;100.00
19827;BME280;10074;52.018;4.726;2023-08-24T16:32:57;46467.88;;;-144.79;100.00
19827;BME280;10074;52.018;4.726;2023-08-24T16:37:58;46469.88;;;-144.79;100.00
19827;BME280;10074;52.018;4.726;2023-08-24T16:42:58;46469.88;;;-144.79;100.00
19827;BME280;10074;52.018;4.726;2023-08-24T16:47:59;46467.88;;;-144.79;100.00
19827;BME280;10074;52.018;4.726;2023-08-24T16:53:01;46469.88;;;-144.79;100.00
19827;BME280;10074;52.018;4.726;2023-08-24T16:58:01;46461.88;;;-144.79;100.00
19827;BME280;10074;52.018;4.726;2023-08-24T17:03:02;46461.88;;;-144.79;100.00
19827;BME280;10074;52.018;4.726;2023-08-24T17:08:05;46465.88;;;-144.79;100.00
19827;BME280;10074;52.018;4.726;2023-08-24T17:13:06;46463.88;;;-144.79;100.00
19827;BME280;10074;52.018;4.726;2023-08-24T17:18:06;46463.88;;;-144.79;100.00
19827;BME280;10074;52.018;4.726;2023-08-24T17:23:07;46463.88;;;-144.79;100.00
19827;BME280;10074;52.018;4.726;2023-08-24T17:28:07;46463.88;;;-144.79;100.00
19827;BME280;10074;52.018;4.726;2023-08-24T17:33:08;46467.88;;;-144.79;100.00
19827;BME280;10074;52.018;4.726;2023-08-24T17:38:09;46461.88;;;-144.79;100.00
19827;BME280;10074;52.018;4.726;2023-08-24T17:43:10;46463.88;;;-144.79;100.00
19827;BME280;10074;52.018;4.726;2023-08-24T17:48:10;46467.88;;;-144.79;100.00
19827;BME280;10074;52.018;4.726;2023-08-24T17:53:11;46467.88;;;-144.79;100.00
19827;BME280;10074;52.018;4.726;2023-08-24T17:58:11;46469.88;;;-144.79;100.00
19827;BME280;10074;52.018;4.726;2023-08-24T18:03:11;46471.91;;;-144.79;100.00
19827;BME280;10074;52.018;4.726;2023-08-24T18:08:12;46465.88;;;-144.79;100.00
19827;BME280;10074;52.018;4.726;2023-08-24T18:13:13;46463.88;;;-144.79;100.00
19827;BME280;10074;52.018;4.726;2023-08-24T18:18:16;46469.88;;;-144.79;100.00
19827;BME280;10074;52.018;4.726;2023-08-24T18:23:16;46465.88;;;-144.79;100.00
19827;BME280;10074;52.018;4.726;2023-08-24T18:28:18;46465.88;;;-144.79;100.00
19827;BME280;10074;52.018;4.726;2023-08-24T18:33:18;46463.88;;;-144.79;100.00
19827;BME280;10074;52.018;4.726;2023-08-24T18:38:19;46465.88;;;-144.79;100.00
19827;BME280;10074;52.018;4.726;2023-08-24T18:43:20;46467.88;;;-144.79;100.00
19827;BME280;10074;52.018;4.726;2023-08-24T18:48:21;46467.88;;;-144.79;100.00
19827;BME280;10074;52.018;4.726;2023-08-24T18:53:21;46461.88;;;-144.79;100.00
19827;BME280;10074;52.018;4.726;2023-08-24T18:58:22;46461.88;;;-144.79;100.00
19827;BME280;10074;52.018;4.726;2023-08-24T19:03:22;46467.88;;;-144.79;100.00
19827;BME280;10074;52.018;4.726;2023-08-24T19:08:24;46467.88;;;-144.79;100.00
19827;BME280;10074;52.018;4.726;2023-08-24T19:13:25;46467.88;;;-144.79;100.00
19827;BME280;10074;52.018;4.726;2023-08-24T19:18:26;46469.88;;;-144.79;100.00
19827;BME280;10074;52.018;4.726;2023-08-24T19:23:29;46465.88;;;-144.79;100.00
19827;BME280;10074;52.018;4.726;2023-08-24T19:28:30;46463.88;;;-144.79;100.00
19827;BME280;10074;52.018;4.726;2023-08-24T19:33:31;46463.88;;;-144.79;100.00
19827;BME280;10074;52.018;4.726;2023-08-24T19:38:32;46465.88;;;-144.79;100.00
19827;BME280;10074;52.018;4.726;2023-08-24T19:43:32;46459.88;;;-144.79;100.00
19827;BME280;10074;52.018;4.726;2023-08-24T19:48:32;46463.88;;;-144.79;100.00
19827;BME280;10074;52.018;4.726;2023-08-24T19:53:33;46463.88;;;-144.79;100.00
19827;BME280;10074;52.018;4.726;2023-08-24T19:58:33;46459.88;;;-144.79;100.00
19827;BME280;10074;52.018;4.726;2023-08-24T20:03:34;46465.88;;;-144.79;100.00
19827;BME280;10074;52.018;4.726;2023-08-24T20:08:34;46467.88;;;-144.79;100.00
19827;BME280;10074;52.018;4.726;2023-08-24T20:13:35;46467.88;;;-144.79;100.00
19827;BME280;10074;52.018;4.726;2023-08-24T20:18:35;46463.88;;;-144.79;100.00
19827;BME280;10074;52.018;4.726;2023-08-24T20:23:38;46459.88;;;-144.79;100.00
19827;BME280;10074;52.018;4.726;2023-08-24T20:28:40;46463.88;;;-144.79;100.00
19827;BME280;10074;52.018;4.726;2023-08-24T20:33:41;46467.88;;;-144.79;100.00
19827;BME280;10074;52.018;4.726;2023-08-24T20:38:41;46463.88;;;-144.79;100.00
19827;BME280;10074;52.018;4.726;2023-08-24T20:43:42;46465.88;;;-144.79;100.00
19827;BME280;10074;52.018;4.726;2023-08-24T20:48:42;46469.88;;;-144.79;100.00
19827;BME280;10074;52.018;4.726;2023-08-24T20:53:43;46459.88;;;-144.79;100.00
19827;BME280;10074;52.018;4.726;2023-08-24T20:58:44;46463.88;;;-144.79;100.00
19827;BME280;10074;52.018;4.726;2023-08-24T21:03:45;46465.88;;;-144.79;100.00
19827;BME280;10074;52.018;4.726;2023-08-24T21:08:45;46459.88;;;-144.79;100.00
19827;BME280;10074;52.018;4.726;2023-08-24T21:13:46;46463.88;;;-144.79;100.00
19827;BME280;10074;52.018;4.726;2023-08-24T21:18:46;46463.88;;;-144.79;100.00
19827;BME280;10074;52.018;4.726;2023-08-24T21:23:47;46465.88;;;-144.79;100.00
19827;BME280;10074;52.018;4.726;2023-08-24T21:28:47;46463.88;;;-144.79;100.00
19827;BME280;10074;52.018;4.726;2023-08-24T21:33:47;46465.88;;;-144.79;100.00
19827;BME280;10074;52.018;4.726;2023-08-24T21:38:48;46459.88;;;-144.79;100.00
19827;BME280;10074;52.018;4.726;2023-08-24T21:43:48;46461.88;;;-144.79;100.00
19827;BME280;10074;52.018;4.726;2023-08-24T21:48:49;46465.88;;;-144.79;100.00
19827;BME280;10074;52.018;4.726;2023-08-24T21:53:49;46459.88;;;-144.79;100.00
19827;BME280;10074;52.018;4.726;2023-08-24T21:58:50;46463.88;;;-144.79;100.00
19827;BME280;10074;52.018;4.726;2023-08-24T22:03:50;46463.88;;;-144.79;100.00
19827;BME280;10074;52.018;4.726;2023-08-24T22:08:50;46463.88;;;-144.79;100.00
19827;BME280;10074;52.018;4.726;2023-08-24T22:13:51;46467.88;;;-144.79;100.00
19827;BME280;10074;52.018;4.726;2023-08-24T22:18:51;46461.88;;;-144.79;100.00
19827;BME280;10074;52.018;4.726;2023-08-24T22:23:52;46461.88;;;-144.79;100.00
19827;BME280;10074;52.018;4.726;2023-08-24T22:28:52;46459.88;;;-144.79;100.00
19827;BME280;10074;52.018;4.726;2023-08-24T22:33:53;46465.88;;;-144.79;100.00
19827;BME280;10074;52.018;4.726;2023-08-24T22:38:53;46465.88;;;-144.79;100.00
19827;BME280;10074;52.018;4.726;2023-08-24T22:43:54;46469.88;;;-144.79;100.00
19827;BME280;10074;52.018;4.726;2023-08-24T22:48:54;46465.88;;;-144.79;100.00
19827;BME280;10074;52.018;4.726;2023-08-24T22:53:55;46469.88;;;-144.79;100.00
19827;BME280;10074;52.018;4.726;2023-08-24T22:58:55;46467.88;;;-144.79;100.00
19827;BME280;10074;52.018;4.726;2023-08-24T23:03:56;46467.88;;;-144.79;100.00
19827;BME280;10074;52.018;4.726;2023-08-24T23:08:57;46465.88;;;-144.79;100.00
19827;BME280;10074;52.018;4.726;2023-08-24T23:13:57;46467.88;;;-144.79;100.00
19827;BME280;10074;52.018;4.726;2023-08-24T23:18:58;46465.88;;;-144.79;100.00
19827;BME280;10074;52.018;4.726;2023-08-24T23:23:58;46463.88;;;-144.79;100.00
19827;BME280;10074;52.018;4.726;2023-08-24T23:28:59;46471.91;;;-144.79;100.00
19827;BME280;10074;52.018;4.726;2023-08-24T23:34:00;46469.88;;;-144.79;100.00
19827;BME280;10074;52.018;4.726;2023-08-24T23:39:00;46463.88;;;-144.79;100.00
19827;BME280;10074;52.018;4.726;2023-08-24T23:44:01;46461.88;;;-144.79;100.00
19827;BME280;10074;52.018;4.726;2023-08-24T23:49:01;46463.88;;;-144.79;100.00
19827;BME280;10074;52.018;4.726;2023-08-24T23:54:01;46465.88;;;-144.79;100.00
19827;BME280;10074;52.018;4.726;2023-08-24T23:59:02;46465.88;;;-144.79;100.00
